createdAt,value
2023-10-29T00:03:26.867Z,27.52
2023-10-29T00:07:29.589Z,28.48
2023-10-29T00:11:31.696Z,26.38
2023-10-29T00:15:34.416Z,28.88
2023-10-29T00:19:36.612Z,24.63
2023-10-29T00:23:38.570Z,31.17
2023-10-29T00:27:40.628Z,27.52
2023-10-29T00:31:43.004Z,26.08
2023-10-29T00:35:45.134Z,26.85
2023-10-29T00:39:47.281Z,29.00
2023-10-29T00:43:49.313Z,33.05
2023-10-29T00:47:51.630Z,28.48
2023-10-29T00:51:54.015Z,31.77
2023-10-29T00:55:56.274Z,33.47
2023-10-29T00:59:58.561Z,32.00
2023-10-29T01:04:00.773Z,31.48
2023-10-29T01:08:06.449Z,37.83
2023-10-29T01:12:16.923Z,27.17
2023-10-29T01:16:18.972Z,28.73
2023-10-29T01:20:21.029Z,30.02
2023-10-29T01:24:23.758Z,37.05
2023-10-29T01:28:25.955Z,29.90
2023-10-29T01:32:28.118Z,33.17
2023-10-29T01:36:30.152Z,36.10
2023-10-29T01:40:32.197Z,31.02
2023-10-29T01:44:34.293Z,28.95
2023-10-29T01:48:36.514Z,33.00
2023-10-29T01:52:41.852Z,30.77
2023-10-29T01:56:43.661Z,36.17
2023-10-29T02:00:45.797Z,32.17
2023-10-29T02:04:48.009Z,31.65
2023-10-29T02:08:50.179Z,35.03
2023-10-29T02:12:53.008Z,27.83
2023-10-29T02:16:54.943Z,32.00
2023-10-29T02:20:57.340Z,30.80
2023-10-29T02:24:59.629Z,26.25
2023-10-29T02:29:01.736Z,29.25
2023-10-29T02:33:04.038Z,29.65
2023-10-29T02:37:06.279Z,31.70
2023-10-29T02:41:08.558Z,29.15
2023-10-29T02:45:11.754Z,30.23
2023-10-29T02:49:13.869Z,34.22
2023-10-29T02:53:16.170Z,31.40
2023-10-29T02:57:18.451Z,30.60
2023-10-29T03:01:20.822Z,28.90
2023-10-29T03:05:22.968Z,31.27
2023-10-29T03:09:25.224Z,30.58
2023-10-29T03:13:27.267Z,32.17
2023-10-29T03:17:29.029Z,28.83
2023-10-29T03:21:31.116Z,34.03
2023-10-29T03:25:33.426Z,32.35
2023-10-29T03:29:35.461Z,31.60
2023-10-29T03:33:37.586Z,32.90
2023-10-29T03:37:40.253Z,29.00
2023-10-29T03:41:43.084Z,32.25
2023-10-29T03:45:45.152Z,33.72
2023-10-29T03:49:47.183Z,35.45
2023-10-29T03:53:49.304Z,34.30
2023-10-29T03:57:51.523Z,32.85
2023-10-29T04:01:53.928Z,33.22
2023-10-29T04:05:56.941Z,33.22
2023-10-29T04:10:00.180Z,33.80
2023-10-29T04:14:03.911Z,34.05
2023-10-29T04:18:06.340Z,34.90
2023-10-29T04:22:09.212Z,37.70
2023-10-29T04:26:11.270Z,33.35
2023-10-29T04:30:13.544Z,32.97
2023-10-29T04:34:15.564Z,36.30
2023-10-29T04:38:17.586Z,39.35
2023-10-29T04:42:19.917Z,31.05
2023-10-29T04:46:21.924Z,36.80
2023-10-29T04:50:24.059Z,37.67
2023-10-29T04:54:26.286Z,38.08
2023-10-29T04:58:28.393Z,34.15
2023-10-29T05:02:30.573Z,34.65
2023-10-29T05:06:33.635Z,34.42
2023-10-29T05:10:35.749Z,31.15
2023-10-29T05:14:37.940Z,35.40
2023-10-29T05:18:40.082Z,31.58
2023-10-29T05:22:42.305Z,32.58
2023-10-29T05:26:44.364Z,30.77
2023-10-29T05:30:46.587Z,44.33
2023-10-29T05:34:48.741Z,35.33
2023-10-29T05:38:50.908Z,48.30
2023-10-29T05:42:53.445Z,41.97
2023-10-29T05:46:55.534Z,41.95
2023-10-29T05:50:58.156Z,36.92
2023-10-29T05:55:04.764Z,39.08
2023-10-29T05:59:06.985Z,45.65
2023-10-29T06:03:09.164Z,48.33
2023-10-29T06:07:11.369Z,50.42
2023-10-29T06:11:13.106Z,47.42
2023-10-29T06:15:16.097Z,39.08
2023-10-29T06:19:18.318Z,40.35
2023-10-29T06:23:21.185Z,47.92
2023-10-29T06:27:23.365Z,42.80
2023-10-29T06:31:30.462Z,45.67
2023-10-29T06:35:32.523Z,45.88
2023-10-29T06:39:34.653Z,40.92
2023-10-29T06:43:36.311Z,39.55
2023-10-29T06:47:38.494Z,50.95
2023-10-29T06:51:40.288Z,42.47
2023-10-29T06:55:43.383Z,37.50
2023-10-29T06:59:45.610Z,41.33
2023-10-29T07:03:47.836Z,45.38
2023-10-29T07:07:50.044Z,50.17
2023-10-29T07:11:52.821Z,43.63
2023-10-29T07:15:55.791Z,35.63
2023-10-29T07:19:58.225Z,40.58
2023-10-29T07:24:00.642Z,34.05
2023-10-29T07:28:03.056Z,37.45
2023-10-29T07:32:05.570Z,36.35
2023-10-29T07:36:08.244Z,34.08
2023-10-29T07:40:10.546Z,34.75
2023-10-29T07:44:12.586Z,34.22
2023-10-29T07:48:18.530Z,28.10
2023-10-29T07:52:20.664Z,26.40
2023-10-29T07:56:22.785Z,24.25
2023-10-29T08:00:24.792Z,21.15
2023-10-29T08:04:29.304Z,21.95
2023-10-29T08:08:31.172Z,24.23
2023-10-29T08:12:33.365Z,22.30
2023-10-29T08:16:35.492Z,20.65
2023-10-29T08:20:37.630Z,19.15
2023-10-29T08:24:41.122Z,19.20
2023-10-29T08:28:43.260Z,21.27
2023-10-29T08:32:45.434Z,18.48
2023-10-29T08:36:47.577Z,16.08
2023-10-29T08:40:49.748Z,17.33
2023-10-29T08:44:56.990Z,14.02
2023-10-29T08:48:59.422Z,15.70
2023-10-29T08:53:01.557Z,13.80
2023-10-29T08:57:03.760Z,14.45
2023-10-29T09:01:13.808Z,13.55
2023-10-29T09:05:16.422Z,12.45
2023-10-29T09:09:19.105Z,11.50
2023-10-29T09:13:23.901Z,11.32
2023-10-29T09:17:26.145Z,10.98
2023-10-29T09:21:28.413Z,10.32
2023-10-29T09:25:30.500Z,9.20
2023-10-29T09:29:34.569Z,9.32
2023-10-29T09:33:36.663Z,9.90
2023-10-29T09:37:38.656Z,10.15
2023-10-29T09:41:44.471Z,10.13
2023-10-29T09:45:48.723Z,9.30
2023-10-29T09:49:52.466Z,8.30
2023-10-29T09:53:57.362Z,9.30
2023-10-29T09:58:00.790Z,9.63
2023-10-29T10:02:03.345Z,7.97
2023-10-29T10:06:07.254Z,9.00
2023-10-29T10:10:09.661Z,8.40
2023-10-29T10:14:27.317Z,8.75
2023-10-29T10:18:29.489Z,7.80
2023-10-29T10:22:38.859Z,7.00
2023-10-29T10:26:42.008Z,6.78
2023-10-29T10:30:44.219Z,8.23
2023-10-29T10:34:52.244Z,7.45
2023-10-29T10:38:54.489Z,7.65
2023-10-29T10:42:57.385Z,6.60
2023-10-29T10:47:01.346Z,6.97
2023-10-29T10:51:04.088Z,6.53
2023-10-29T10:55:10.699Z,5.70
2023-10-29T10:59:21.472Z,5.03
2023-10-29T11:03:32.238Z,5.47
2023-10-29T11:07:36.222Z,4.88
2023-10-29T11:11:44.505Z,4.93
2023-10-29T11:15:51.056Z,5.50
2023-10-29T11:19:53.400Z,4.40
2023-10-29T11:24:19.867Z,4.53
2023-10-29T11:28:25.452Z,4.75
2023-10-29T11:32:27.718Z,4.55
2023-10-29T11:36:36.579Z,3.92
2023-10-29T11:40:38.871Z,4.05
2023-10-29T11:44:41.131Z,3.97
2023-10-29T11:49:04.139Z,3.97
2023-10-29T11:53:08.271Z,3.65
2023-10-29T11:57:10.579Z,4.13
2023-10-29T12:01:18.955Z,4.00
2023-10-29T12:05:20.937Z,3.72
2023-10-29T12:09:24.971Z,3.25
2023-10-29T12:13:40.054Z,3.15
2023-10-29T12:17:46.452Z,3.35
2023-10-29T12:21:52.437Z,3.40
2023-10-29T12:25:54.778Z,3.20
2023-10-29T12:29:57.518Z,3.33
2023-10-29T12:34:01.065Z,3.47
2023-10-29T12:38:02.789Z,2.88
2023-10-29T12:42:05.048Z,2.33
2023-10-29T12:46:15.498Z,2.70
2023-10-29T12:50:17.537Z,2.83
2023-10-29T12:54:24.905Z,3.00
2023-10-29T12:58:29.404Z,3.17
2023-10-29T13:02:31.667Z,2.97
2023-10-29T13:06:33.977Z,2.80
2023-10-29T13:10:37.031Z,3.08
2023-10-29T13:14:40.572Z,2.50
2023-10-29T13:18:42.737Z,2.53
2023-10-29T13:22:45.993Z,2.95
2023-10-29T13:26:49.469Z,2.25
2023-10-29T13:30:56.205Z,1.95
2023-10-29T13:34:58.452Z,2.08
2023-10-29T13:39:00.659Z,2.60
2023-10-29T13:43:02.698Z,1.90
2023-10-29T13:47:05.124Z,2.22
2023-10-29T13:51:07.633Z,2.20
2023-10-29T13:55:10.036Z,2.35
2023-10-29T13:59:13.061Z,2.60
2023-10-29T14:03:15.080Z,2.17
2023-10-29T14:07:17.387Z,2.03
2023-10-29T14:11:20.842Z,2.33
2023-10-29T14:15:22.855Z,2.58
2023-10-29T14:19:25.473Z,2.40
2023-10-29T14:23:28.014Z,2.47
2023-10-29T14:27:31.275Z,2.40
2023-10-29T14:31:35.021Z,2.13
2023-10-29T14:35:37.281Z,2.33
2023-10-29T14:39:39.365Z,1.98
2023-10-29T14:43:42.319Z,2.10
2023-10-29T14:47:47.218Z,2.10
2023-10-29T14:51:49.291Z,2.60
2023-10-29T14:55:51.436Z,2.60
2023-10-29T14:59:53.576Z,2.28
2023-10-29T15:03:56.212Z,2.33
2023-10-29T15:07:58.338Z,2.80
2023-10-29T15:12:04.548Z,1.90
2023-10-29T15:16:07.301Z,2.20
2023-10-29T15:20:10.541Z,3.33
2023-10-29T15:24:12.604Z,5.25
2023-10-29T15:28:14.792Z,4.18
2023-10-29T15:32:17.060Z,3.10
2023-10-29T15:36:19.188Z,2.72
2023-10-29T15:40:21.437Z,3.33
2023-10-29T15:44:23.586Z,3.67
2023-10-29T15:48:25.825Z,3.35
2023-10-29T15:52:27.570Z,3.05
2023-10-29T15:56:32.120Z,3.67
2023-10-29T16:00:37.498Z,3.72
2023-10-29T16:04:39.812Z,5.82
2023-10-29T16:08:42.115Z,4.78
2023-10-29T16:12:43.926Z,4.45
2023-10-29T16:16:45.956Z,4.07
2023-10-29T16:20:48.930Z,10.70
2023-10-29T16:24:50.716Z,4.15
2023-10-29T16:28:53.096Z,3.28
2023-10-29T16:32:56.568Z,3.60
2023-10-29T16:36:58.704Z,4.30
2023-10-29T16:41:05.188Z,3.60
2023-10-29T16:45:08.121Z,4.28
2023-10-29T16:49:10.536Z,3.95
2023-10-29T16:53:12.735Z,3.63
2023-10-29T16:57:14.965Z,3.60
2023-10-29T17:01:17.144Z,3.40
2023-10-29T17:05:19.523Z,3.53
2023-10-29T17:09:22.933Z,6.50
2023-10-29T17:13:25.922Z,9.45
2023-10-29T17:17:29.608Z,10.57
2023-10-29T17:21:32.045Z,14.57
2023-10-29T17:25:36.343Z,13.35
2023-10-29T17:29:38.388Z,15.00
2023-10-29T17:33:41.086Z,10.40
2023-10-29T17:37:44.420Z,8.43
2023-10-29T17:41:46.996Z,8.32
2023-10-29T17:45:49.076Z,7.05
2023-10-29T17:49:51.117Z,7.72
2023-10-29T17:53:54.682Z,10.95
2023-10-29T17:57:57.949Z,11.38
2023-10-29T18:01:59.958Z,12.48
2023-10-29T18:06:15.539Z,18.45
2023-10-29T18:10:18.699Z,9.77
2023-10-29T18:14:21.505Z,7.72
2023-10-29T18:18:23.553Z,7.30
2023-10-29T18:22:25.651Z,8.68
2023-10-29T18:26:27.743Z,7.05
2023-10-29T18:30:29.900Z,6.93
2023-10-29T18:34:32.321Z,7.95
2023-10-29T18:38:34.522Z,9.13
2023-10-29T18:42:36.593Z,8.80
2023-10-29T18:46:38.732Z,7.93
2023-10-29T18:50:40.758Z,7.70
2023-10-29T18:54:42.808Z,7.80
2023-10-29T18:58:45.563Z,8.57
2023-10-29T19:02:47.689Z,8.70
2023-10-29T19:06:49.715Z,8.50
2023-10-29T19:10:51.867Z,8.55
2023-10-29T19:14:54.002Z,9.02
2023-10-29T19:18:58.871Z,8.80
2023-10-29T19:23:02.369Z,8.88
2023-10-29T19:27:04.432Z,8.50
2023-10-29T19:39:17.138Z,9.23
2023-10-29T19:43:19.424Z,8.50
2023-10-29T19:47:21.493Z,8.60
2023-10-29T19:51:24.347Z,9.30
2023-10-29T19:55:26.500Z,9.13
2023-10-29T19:59:28.615Z,8.95
2023-10-29T20:03:31.049Z,8.60
2023-10-29T20:07:33.620Z,9.95
2023-10-29T20:11:35.677Z,9.77
2023-10-29T20:15:37.821Z,10.93
2023-10-29T20:19:43.036Z,10.68
2023-10-29T20:23:45.094Z,9.18
2023-10-29T20:27:47.083Z,11.38
2023-10-29T20:31:49.173Z,12.52
2023-10-29T20:35:51.279Z,18.13
2023-10-29T20:39:53.370Z,13.40
2023-10-29T20:43:55.342Z,12.15
2023-10-29T20:47:57.673Z,12.35
2023-10-29T20:51:59.458Z,12.38
2023-10-29T20:56:05.849Z,11.18
2023-10-29T21:00:09.360Z,10.38
2023-10-29T21:04:11.774Z,11.30
2023-10-29T21:08:13.709Z,11.02
2023-10-29T21:12:15.899Z,11.27
2023-10-29T21:16:21.534Z,11.27
2023-10-29T21:20:27.587Z,10.85
2023-10-29T21:24:29.818Z,11.20
2023-10-29T21:28:32.438Z,11.20
2023-10-29T21:32:34.299Z,12.77
2023-10-29T21:36:37.671Z,11.75
2023-10-29T21:40:39.303Z,11.55
2023-10-29T21:44:45.784Z,13.45
2023-10-29T21:48:47.816Z,14.70
2023-10-29T21:52:49.932Z,14.40
2023-10-29T21:56:51.914Z,14.25
2023-10-29T22:00:54.111Z,14.18
2023-10-29T22:04:55.910Z,12.57
2023-10-29T22:08:58.952Z,13.20
2023-10-29T22:13:01.588Z,13.75
2023-10-29T22:17:03.802Z,12.25
2023-10-29T22:21:11.616Z,13.13
2023-10-29T22:25:13.917Z,13.73
2023-10-29T22:29:16.064Z,14.75
2023-10-29T22:33:18.229Z,15.50
2023-10-29T22:37:20.370Z,14.98
2023-10-29T22:41:22.417Z,14.10
2023-10-29T22:45:24.762Z,15.20
2023-10-29T22:49:26.939Z,16.17
2023-10-29T22:53:28.958Z,15.15
2023-10-29T22:57:31.119Z,16.27
2023-10-29T23:01:33.220Z,15.07
2023-10-29T23:05:35.462Z,14.90
2023-10-29T23:09:37.178Z,14.45
2023-10-29T23:13:39.289Z,14.65
2023-10-29T23:17:41.772Z,14.38
2023-10-29T23:21:43.633Z,13.80
2023-10-29T23:25:46.162Z,14.15
2023-10-29T23:29:48.701Z,15.05
2023-10-29T23:33:50.981Z,14.93
2023-10-29T23:37:54.483Z,13.75
2023-10-29T23:41:56.948Z,14.13
2023-10-29T23:45:59.030Z,13.13
2023-10-29T23:50:01.059Z,15.43
2023-10-29T23:54:03.497Z,15.65
2023-10-29T23:58:05.570Z,14.60
